Time;durP1;ratioP1;P1;durP2;ratioP2;P2;SDS_P1;SDS_P2;PMS_P1;PMS_P2;Temp;Humidity;BMP_temperature;BMP_pressure;BME280_temperature;BME280_humidity;BME280_pressure;Samples;Min_cycle;Max_cycle;Signal;HPM_P1;HPM_P2
2022/01/05 00:01:38;;;;;;;;;;;1.80;99.90;;;;;;5062766;28;20344;-45
2022/01/05 00:04:04;;;;;;;;;;;1.80;99.90;;;;;;5084973;28;20016;-47
2022/01/05 00:06:30;;;;;;;;;;;1.70;99.90;;;;;;5065268;28;19926;-44
2022/01/05 00:08:57;;;;;;;;;;;1.70;99.90;;;;;;5039522;28;19920;-44
2022/01/05 00:11:23;;;;;;;;;;;1.70;99.90;;;;;;5049671;28;20409;-47
2022/01/05 00:13:49;;;;;;;;;;;1.70;99.90;;;;;;5060928;28;20003;-44
2022/01/05 00:16:15;;;;;;;;;;;1.60;99.90;;;;;;5084520;28;19943;-44
2022/01/05 00:18:40;;;;;;;;;;;1.70;99.90;;;;;;5047550;28;19916;-43
2022/01/05 00:21:06;;;;;;;;;;;1.60;99.90;;;;;;5080803;28;19974;-43
2022/01/05 00:23:32;;;;;;;;;;;1.60;99.90;;;;;;5043474;28;19916;-44
2022/01/05 00:26:01;;;;;;;;;;;1.60;99.90;;;;;;5068257;28;19960;-47
2022/01/05 00:28:26;;;;;;;;;;;1.60;99.90;;;;;;5043451;28;19920;-43
2022/01/05 00:30:52;;;;;;;;;;;1.60;99.90;;;;;;5060629;28;19916;-47
2022/01/05 00:33:18;;;;;;;;;;;1.60;99.90;;;;;;5075666;28;19928;-43
2022/01/05 00:35:44;;;;;;;;;;;1.60;99.90;;;;;;5075432;28;19917;-43
2022/01/05 00:38:09;;;;;;;;;;;1.60;99.90;;;;;;5060171;28;19920;-45
2022/01/05 00:40:35;;;;;;;;;;;1.60;99.90;;;;;;5051870;28;19925;-47
2022/01/05 00:43:01;;;;;;;;;;;1.50;99.90;;;;;;5059851;28;19916;-42
2022/01/05 00:45:27;;;;;;;;;;;1.50;99.90;;;;;;5048913;28;19924;-44
2022/01/05 00:47:53;;;;;;;;;;;1.50;99.90;;;;;;5067297;28;20011;-43
2022/01/05 00:50:19;;;;;;;;;;;1.50;99.90;;;;;;5062036;28;20394;-45
2022/01/05 00:52:44;;;;;;;;;;;1.50;99.90;;;;;;5065704;28;20442;-43
2022/01/05 00:55:10;;;;;;;;;;;1.50;99.90;;;;;;5062905;28;19931;-45
2022/01/05 00:57:37;;;;;;;;;;;1.50;99.90;;;;;;5054907;28;19956;-45
2022/01/05 01:00:04;;;;;;;;;;;1.60;99.90;;;;;;5052406;28;20362;-45
2022/01/05 01:02:30;;;;;;;;;;;1.70;99.90;;;;;;5053117;28;19917;-45
2022/01/05 01:04:55;;;;;;;;;;;1.80;99.90;;;;;;5068277;28;19931;-43
2022/01/05 01:07:21;;;;;;;;;;;1.70;99.90;;;;;;5043513;28;20394;-45
2022/01/05 01:09:47;;;;;;;;;;;1.80;99.90;;;;;;5053772;28;19916;-46
2022/01/05 01:12:22;;;;;;;;;;;1.70;99.90;;;;;;5060091;28;20290;-47
2022/01/05 01:14:47;;;;;;;;;;;1.70;99.90;;;;;;5052781;28;19920;-48
2022/01/05 01:17:13;;;;;;;;;;;1.60;99.90;;;;;;5044915;28;20374;-46
2022/01/05 01:19:39;;;;;;;;;;;1.60;99.90;;;;;;5067335;28;19927;-44
2022/01/05 01:22:05;;;;;;;;;;;1.60;99.90;;;;;;5078121;28;19920;-43
2022/01/05 01:24:32;;;;;;;;;;;1.60;99.90;;;;;;5087102;28;19920;-47
2022/01/05 01:26:58;;;;;;;;;;;1.60;99.90;;;;;;5084087;28;20183;-44
2022/01/05 01:43:23;;;;;;;;;;;1.70;99.90;;;;;;5073468;28;19908;-46
2022/01/05 01:45:49;;;;;;;;;;;1.70;99.90;;;;;;5061802;28;19938;-45
2022/01/05 01:48:15;;;;;;;;;;;1.80;99.90;;;;;;5049358;28;20433;-42
2022/01/05 01:50:41;;;;;;;;;;;1.80;99.90;;;;;;5040992;28;19921;-43
2022/01/05 01:53:07;;;;;;;;;;;1.90;99.90;;;;;;5053812;28;20266;-44
2022/01/05 01:55:35;;;;;;;;;;;1.90;99.90;;;;;;5047039;28;19921;-42
2022/01/05 01:58:01;;;;;;;;;;;1.90;99.90;;;;;;5028053;28;19946;-42
2022/01/05 02:00:29;;;;;;;;;;;2.00;99.90;;;;;;5041964;28;19935;-43
2022/01/05 02:02:55;;;;;;;;;;;2.00;99.90;;;;;;5065337;28;19924;-43
2022/01/05 02:05:21;;;;;;;;;;;2.00;99.90;;;;;;5077422;28;19920;-44
2022/01/05 02:07:47;;;;;;;;;;;2.00;99.90;;;;;;5076191;28;19974;-45
2022/01/05 02:10:12;;;;;;;;;;;2.00;99.90;;;;;;5061692;28;19967;-44
2022/01/05 02:12:38;;;;;;;;;;;2.10;99.90;;;;;;5075740;28;19916;-44
2022/01/05 02:15:05;;;;;;;;;;;2.10;99.90;;;;;;5057455;28;19947;-45
2022/01/05 02:17:45;;;;;;;;;;;2.10;99.90;;;;;;5051525;28;20259;-44
2022/01/05 02:20:13;;;;;;;;;;;2.10;99.90;;;;;;5060166;28;20505;-43
2022/01/05 02:22:38;;;;;;;;;;;2.10;99.90;;;;;;5079660;28;20318;-44
2022/01/05 02:25:06;;;;;;;;;;;2.10;99.90;;;;;;5043704;28;19923;-47
2022/01/05 02:27:32;;;;;;;;;;;2.10;99.90;;;;;;5044578;28;20034;-42
2022/01/05 02:29:58;;;;;;;;;;;2.10;99.90;;;;;;5045383;28;20051;-44
2022/01/05 02:32:23;;;;;;;;;;;2.10;99.90;;;;;;5038909;28;20011;-42
2022/01/05 02:34:50;;;;;;;;;;;2.10;99.90;;;;;;5066059;28;19920;-43
2022/01/05 02:37:16;;;;;;;;;;;2.10;99.90;;;;;;5073870;28;19970;-45
2022/01/05 02:39:42;;;;;;;;;;;2.10;99.90;;;;;;5064791;28;19920;-43
2022/01/05 02:42:08;;;;;;;;;;;2.10;99.90;;;;;;5034642;28;19928;-44
2022/01/05 02:44:33;;;;;;;;;;;2.10;99.90;;;;;;5068673;28;19937;-47
2022/01/05 02:47:00;;;;;;;;;;;2.00;99.90;;;;;;5065774;28;19923;-43
2022/01/05 02:49:26;;;;;;;;;;;2.10;99.90;;;;;;5047222;28;19921;-43
2022/01/05 02:51:52;;;;;;;;;;;2.10;99.90;;;;;;5061381;28;19931;-44
2022/01/05 02:54:18;;;;;;;;;;;3.20;99.90;;;;;;5060666;28;19932;-44
2022/01/05 02:56:43;;;;;;;;;;;2.10;99.90;;;;;;5066123;28;19923;-44
2022/01/05 02:59:09;;;;;;;;;;;2.20;99.90;;;;;;5043293;28;20282;-44
2022/01/05 03:01:36;;;;;;;;;;;2.20;99.90;;;;;;5066438;28;19921;-43
2022/01/05 03:04:02;;;;;;;;;;;2.20;99.90;;;;;;5049660;28;19928;-44
2022/01/05 03:06:28;;;;;;;;;;;2.30;99.90;;;;;;5064324;28;19920;-44
2022/01/05 03:08:54;;;;;;;;;;;2.40;99.90;;;;;;5062764;28;20374;-43
2022/01/05 03:11:20;;;;;;;;;;;2.40;99.90;;;;;;5069217;28;19975;-44
2022/01/05 03:13:47;;;;;;;;;;;2.50;99.90;;;;;;5064601;28;20313;-43
2022/01/05 03:16:14;;;;;;;;;;;2.60;99.90;;;;;;5048017;28;19985;-46
2022/01/05 03:18:41;;;;;;;;;;;2.70;99.90;;;;;;5047430;28;19916;-45
2022/01/05 03:21:06;;;;;;;;;;;2.80;99.90;;;;;;5055711;28;19923;-46
2022/01/05 03:23:32;;;;;;;;;;;2.80;99.90;;;;;;5061291;28;20286;-43
2022/01/05 03:25:58;;;;;;;;;;;2.80;99.90;;;;;;5063447;28;19916;-43
2022/01/05 03:28:24;;;;;;;;;;;2.90;99.90;;;;;;5051830;28;19995;-45
2022/01/05 03:30:50;;;;;;;;;;;2.90;99.90;;;;;;5053490;28;19979;-45
2022/01/05 03:33:20;;;;;;;;;;;2.90;99.90;;;;;;5050372;28;19927;-42
2022/01/05 03:35:47;;;;;;;;;;;2.90;99.90;;;;;;5055826;28;19953;-43
2022/01/05 03:38:15;;;;;;;;;;;2.90;99.90;;;;;;5080318;28;19920;-45
2022/01/05 03:40:42;;;;;;;;;;;2.80;99.90;;;;;;5074115;28;19922;-47
2022/01/05 03:43:08;;;;;;;;;;;2.80;99.90;;;;;;5058859;28;19916;-45
2022/01/05 03:45:36;;;;;;;;;;;2.80;99.90;;;;;;5074920;28;19986;-44
2022/01/05 03:48:02;;;;;;;;;;;2.80;99.90;;;;;;5043836;28;19928;-45
2022/01/05 03:50:28;;;;;;;;;;;2.80;99.90;;;;;;5029486;28;20046;-45
2022/01/05 03:52:54;;;;;;;;;;;2.80;99.90;;;;;;5061217;28;19946;-44
2022/01/05 03:55:20;;;;;;;;;;;2.80;99.90;;;;;;5054258;28;19924;-44
2022/01/05 03:57:45;;;;;;;;;;;2.80;99.90;;;;;;5050370;28;20327;-43
2022/01/05 04:00:12;;;;;;;;;;;2.80;99.90;;;;;;5065975;28;19920;-44
2022/01/05 04:02:37;;;;;;;;;;;2.80;99.90;;;;;;5040463;28;20379;-47
2022/01/05 04:05:03;;;;;;;;;;;2.80;99.90;;;;;;5054957;28;20007;-43
2022/01/05 04:07:29;;;;;;;;;;;2.80;99.90;;;;;;5064652;28;19923;-44
2022/01/05 04:09:55;;;;;;;;;;;2.80;99.90;;;;;;5049652;28;20015;-45
2022/01/05 04:12:21;;;;;;;;;;;2.70;99.90;;;;;;5053318;28;19970;-46
2022/01/05 04:14:46;;;;;;;;;;;2.80;99.90;;;;;;5065165;28;20274;-46
2022/01/05 04:17:12;;;;;;;;;;;2.80;99.90;;;;;;5050038;28;19917;-46
2022/01/05 04:19:38;;;;;;;;;;;2.80;99.90;;;;;;5035308;28;19923;-44
2022/01/05 04:22:05;;;;;;;;;;;2.80;99.90;;;;;;5053648;28;19916;-44
2022/01/05 04:24:31;;;;;;;;;;;2.80;99.90;;;;;;5065117;28;19920;-47
2022/01/05 04:26:56;;;;;;;;;;;2.80;99.90;;;;;;5055086;28;19927;-42
2022/01/05 04:29:22;;;;;;;;;;;2.80;99.90;;;;;;5068041;28;20289;-45
2022/01/05 04:31:50;;;;;;;;;;;2.80;99.90;;;;;;5065663;28;19917;-44
2022/01/05 04:34:15;;;;;;;;;;;2.80;99.90;;;;;;5047695;28;19931;-45
2022/01/05 04:36:41;;;;;;;;;;;2.80;99.90;;;;;;5060894;28;19920;-43
2022/01/05 04:39:07;;;;;;;;;;;2.80;99.90;;;;;;5060619;28;19993;-44
2022/01/05 04:41:33;;;;;;;;;;;2.80;99.90;;;;;;5057795;28;20431;-45
2022/01/05 04:43:58;;;;;;;;;;;2.80;99.90;;;;;;5049388;28;19920;-46
2022/01/05 04:46:24;;;;;;;;;;;2.80;99.90;;;;;;5035864;28;19916;-44
2022/01/05 04:48:50;;;;;;;;;;;2.80;99.90;;;;;;5083071;28;19978;-45
2022/01/05 04:51:16;;;;;;;;;;;2.80;99.90;;;;;;5060257;28;19923;-45
2022/01/05 04:53:42;;;;;;;;;;;2.70;99.90;;;;;;5044725;28;19928;-47
2022/01/05 04:56:07;;;;;;;;;;;2.70;99.90;;;;;;5043705;28;20027;-43
2022/01/05 04:58:33;;;;;;;;;;;2.70;99.90;;;;;;5077288;28;19924;-44
2022/01/05 05:00:59;;;;;;;;;;;2.70;99.90;;;;;;5060385;28;19993;-44
2022/01/05 05:03:25;;;;;;;;;;;2.80;99.90;;;;;;5063689;28;20003;-44
2022/01/05 05:05:50;;;;;;;;;;;2.80;99.90;;;;;;5068904;28;20616;-45
2022/01/05 05:08:16;;;;;;;;;;;2.80;99.90;;;;;;5043726;28;19963;-45
2022/01/05 05:10:42;;;;;;;;;;;2.90;99.90;;;;;;5049153;28;20014;-44
2022/01/05 05:13:09;;;;;;;;;;;2.80;99.90;;;;;;5051434;28;19930;-44
2022/01/05 05:15:35;;;;;;;;;;;2.90;99.90;;;;;;5043592;28;19925;-44
2022/01/05 05:18:00;;;;;;;;;;;2.90;99.90;;;;;;5064002;28;20419;-43
2022/01/05 05:20:26;;;;;;;;;;;2.90;99.90;;;;;;5056297;28;19920;-45
2022/01/05 05:22:52;;;;;;;;;;;3.00;99.90;;;;;;5045571;28;19943;-47
2022/01/05 05:25:18;;;;;;;;;;;3.00;99.90;;;;;;5066559;28;20015;-44
2022/01/05 05:27:44;;;;;;;;;;;3.00;99.90;;;;;;5062981;28;20007;-45
2022/01/05 05:30:10;;;;;;;;;;;3.10;99.90;;;;;;5056091;28;19928;-46
2022/01/05 05:32:35;;;;;;;;;;;3.10;99.90;;;;;;5060555;28;19921;-44
2022/01/05 05:35:05;;;;;;;;;;;3.10;99.90;;;;;;5059373;28;19973;-46
2022/01/05 05:37:33;;;;;;;;;;;3.20;99.90;;;;;;5054260;28;20354;-45
2022/01/05 05:39:59;;;;;;;;;;;3.20;99.90;;;;;;5066220;28;19916;-45
2022/01/05 05:42:26;;;;;;;;;;;3.30;99.90;;;;;;5083173;28;19927;-46
2022/01/05 05:44:52;;;;;;;;;;;3.30;99.90;;;;;;5049879;28;20335;-44
2022/01/05 05:47:18;;;;;;;;;;;3.40;99.90;;;;;;5084411;28;20374;-47
2022/01/05 05:49:45;;;;;;;;;;;3.40;99.90;;;;;;5068792;28;19959;-48
2022/01/05 05:52:14;;;;;;;;;;;3.40;99.90;;;;;;5047827;28;20274;-44
2022/01/05 05:54:41;;;;;;;;;;;3.30;99.90;;;;;;5068201;28;20546;-44
2022/01/05 05:57:08;;;;;;;;;;;3.30;99.90;;;;;;5046665;28;19920;-49
2022/01/05 05:59:34;;;;;;;;;;;3.20;99.90;;;;;;5066462;28;20401;-44
2022/01/05 06:02:00;;;;;;;;;;;3.10;99.90;;;;;;5042636;28;19924;-45
2022/01/05 06:28:24;;;;;;;;;;;3.30;99.90;;;;;;5071008;28;19948;-46
2022/01/05 06:30:50;;;;;;;;;;;3.30;99.90;;;;;;5053502;28;19978;-49
2022/01/05 06:33:16;;;;;;;;;;;3.30;99.90;;;;;;5054250;28;20312;-48
2022/01/05 06:35:42;;;;;;;;;;;3.40;99.90;;;;;;5069045;28;19916;-47
2022/01/05 06:38:07;;;;;;;;;;;3.40;99.90;;;;;;5060112;28;19916;-51
2022/01/05 06:40:34;;;;;;;;;;;3.40;99.90;;;;;;5052219;28;19916;-48
2022/01/05 06:43:01;;;;;;;;;;;3.40;99.90;;;;;;5063123;28;19916;-45
2022/01/05 06:45:27;;;;;;;;;;;3.50;99.90;;;;;;5047086;28;19920;-46
2022/01/05 06:47:53;;;;;;;;;;;3.50;99.90;;;;;;5066206;28;19916;-46
2022/01/05 06:50:18;;;;;;;;;;;3.60;99.90;;;;;;5054531;28;19924;-46
2022/01/05 06:52:44;;;;;;;;;;;3.60;99.90;;;;;;5071165;28;19928;-48
2022/01/05 06:55:10;;;;;;;;;;;3.60;99.90;;;;;;5064170;28;19951;-50
2022/01/05 06:57:39;;;;;;;;;;;3.60;99.90;;;;;;5065950;28;19916;-45
2022/01/05 07:00:05;;;;;;;;;;;3.70;99.90;;;;;;5030103;28;20019;-49
2022/01/05 07:02:32;;;;;;;;;;;4.40;99.90;;;;;;5058960;28;20401;-47
2022/01/05 07:04:58;;;;;;;;;;;3.70;99.90;;;;;;5045247;28;19951;-46
2022/01/05 07:07:24;;;;;;;;;;;3.70;99.90;;;;;;5063259;28;19986;-48
2022/01/05 07:09:49;;;;;;;;;;;3.80;99.90;;;;;;5064464;28;20443;-46
2022/01/05 07:12:16;;;;;;;;;;;3.80;99.90;;;;;;5055302;28;19924;-46
2022/01/05 07:14:42;;;;;;;;;;;3.80;99.90;;;;;;5031538;28;19925;-46
2022/01/05 07:17:08;;;;;;;;;;;3.80;99.90;;;;;;5083908;28;19920;-46
2022/01/05 07:19:34;;;;;;;;;;;3.80;99.90;;;;;;5063363;28;20396;-49
2022/01/05 07:21:59;;;;;;;;;;;3.80;99.90;;;;;;5056451;28;19971;-46
2022/01/05 07:24:25;;;;;;;;;;;3.80;99.90;;;;;;5042855;28;19920;-47
2022/01/05 07:26:51;;;;;;;;;;;3.80;99.90;;;;;;5058166;28;19924;-50
2022/01/05 07:29:18;;;;;;;;;;;3.80;99.90;;;;;;5049869;28;20235;-46
2022/01/05 07:31:44;;;;;;;;;;;3.70;99.90;;;;;;5041837;28;19999;-46
2022/01/05 07:34:10;;;;;;;;;;;3.70;99.90;;;;;;5061858;28;20012;-48
2022/01/05 07:36:37;;;;;;;;;;;3.70;99.90;;;;;;5059715;28;19932;-48
2022/01/05 07:39:04;;;;;;;;;;;3.70;99.90;;;;;;5069249;28;19920;-46
2022/01/05 07:41:35;;;;;;;;;;;3.70;99.90;;;;;;5046765;28;19924;-49
2022/01/05 07:44:01;;;;;;;;;;;3.80;99.90;;;;;;5058373;28;19921;-50
2022/01/05 07:46:27;;;;;;;;;;;3.80;99.90;;;;;;5080703;28;19924;-45
2022/01/05 07:49:12;;;;;;;;;;;3.80;99.90;;;;;;5041691;28;19927;-48
2022/01/05 07:51:37;;;;;;;;;;;3.80;99.90;;;;;;5078771;28;19967;-51
2022/01/05 07:54:03;;;;;;;;;;;3.80;99.90;;;;;;5051649;28;19964;-48
2022/01/05 07:56:30;;;;;;;;;;;3.80;99.90;;;;;;5035222;28;19916;-45
2022/01/05 07:58:56;;;;;;;;;;;3.80;99.90;;;;;;5054764;28;19986;-45
2022/01/05 08:01:24;;;;;;;;;;;3.80;99.90;;;;;;5039609;28;19967;-46
2022/01/05 08:03:50;;;;;;;;;;;3.80;99.90;;;;;;5065483;28;20004;-50
2022/01/05 08:06:17;;;;;;;;;;;3.90;99.90;;;;;;5047095;28;20046;-46
2022/01/05 08:08:45;;;;;;;;;;;3.90;99.90;;;;;;5064922;28;20396;-46
2022/01/05 08:11:17;;;;;;;;;;;4.00;99.90;;;;;;5051686;28;19920;-48
2022/01/05 08:13:43;;;;;;;;;;;4.00;99.90;;;;;;5048176;28;20243;-45
2022/01/05 08:16:10;;;;;;;;;;;4.10;99.90;;;;;;5066016;28;19916;-44
2022/01/05 09:07:59;;;;;;;;;;;4.70;99.90;;;;;;5108151;27;19917;-47
2022/01/05 09:10:25;;;;;;;;;;;4.70;99.90;;;;;;5072110;28;20240;-48
2022/01/05 09:12:53;;;;;;;;;;;4.70;99.90;;;;;;5036931;28;19927;-46
2022/01/05 09:15:19;;;;;;;;;;;4.70;99.90;;;;;;5068926;28;19960;-47
2022/01/05 09:17:45;;;;;;;;;;;4.70;99.90;;;;;;5047141;28;20562;-45
2022/01/05 09:20:14;;;;;;;;;;;4.70;99.90;;;;;;5052137;28;19974;-46
2022/01/05 09:22:40;;;;;;;;;;;4.70;99.90;;;;;;5055266;28;19920;-45
2022/01/05 09:25:07;;;;;;;;;;;4.70;99.90;;;;;;5050453;28;20360;-47
2022/01/05 09:27:33;;;;;;;;;;;4.70;99.90;;;;;;5036988;28;20054;-49
2022/01/05 09:30:01;;;;;;;;;;;4.70;99.90;;;;;;5047849;28;20020;-48
2022/01/05 09:32:30;;;;;;;;;;;4.80;99.90;;;;;;5069794;28;20317;-45
2022/01/05 09:34:56;;;;;;;;;;;4.90;99.90;;;;;;5051529;28;19963;-47
2022/01/05 09:37:33;;;;;;;;;;;5.00;99.90;;;;;;5050230;28;19974;-47
2022/01/05 09:42:45;;;;;;;;;;;5.10;99.90;;;;;;5068296;28;19995;-47
2022/01/05 09:45:15;;;;;;;;;;;5.20;99.90;;;;;;5035167;28;20287;-47
2022/01/05 09:47:57;;;;;;;;;;;5.30;99.90;;;;;;5061305;28;19920;-48
2022/01/05 09:50:23;;;;;;;;;;;5.40;99.90;;;;;;5064701;28;20397;-48
2022/01/05 09:52:49;;;;;;;;;;;5.50;99.90;;;;;;5064953;28;19920;-46
2022/01/05 09:55:22;;;;;;;;;;;5.60;99.90;;;;;;5049983;28;20342;-47
2022/01/05 09:57:49;;;;;;;;;;;5.60;99.90;;;;;;5049349;28;20005;-49
2022/01/05 10:00:16;;;;;;;;;;;5.60;99.90;;;;;;5051046;28;20135;-48
2022/01/05 10:57:08;;;;;;;;;;;6.80;99.90;;;;;;5099171;28;19990;-46
2022/01/05 10:59:36;;;;;;;;;;;6.80;99.90;;;;;;5077294;28;20242;-45
2022/01/05 11:02:19;;;;;;;;;;;6.70;99.90;;;;;;5060898;28;20289;-46
2022/01/05 11:04:46;;;;;;;;;;;6.60;99.90;;;;;;5095056;28;19920;-46
2022/01/05 11:07:19;;;;;;;;;;;6.70;99.90;;;;;;5049444;28;19968;-47
2022/01/05 14:14:55;;;;;;;;;;;5.70;99.90;;;;;;5091396;27;20439;-50
2022/01/05 14:17:21;;;;;;;;;;;5.70;99.90;;;;;;5089429;28;19924;-47
2022/01/05 14:19:48;;;;;;;;;;;5.60;99.90;;;;;;5071954;28;20290;-45
2022/01/05 14:22:18;;;;;;;;;;;5.60;99.90;;;;;;5074767;28;19919;-46
2022/01/05 14:24:45;;;;;;;;;;;5.50;99.90;;;;;;5086382;28;20487;-45
2022/01/05 14:27:19;;;;;;;;;;;5.40;99.90;;;;;;5087339;28;19934;-46
2022/01/05 14:29:45;;;;;;;;;;;5.40;99.90;;;;;;5102153;27;19916;-48
2022/01/05 14:32:14;;;;;;;;;;;5.30;99.90;;;;;;5088988;28;19974;-47
2022/01/05 14:34:47;;;;;;;;;;;5.30;99.90;;;;;;5075835;28;19927;-45
2022/01/05 14:37:15;;;;;;;;;;;5.50;99.90;;;;;;5088372;28;19924;-48
2022/01/05 14:39:48;;;;;;;;;;;5.60;99.90;;;;;;5095154;27;20385;-48
2022/01/05 14:42:15;;;;;;;;;;;5.70;99.90;;;;;;5073911;28;19924;-46
2022/01/05 14:44:41;;;;;;;;;;;5.80;99.90;;;;;;5091041;28;20427;-49
2022/01/05 14:47:09;;;;;;;;;;;5.90;99.90;;;;;;5065744;28;19974;-46
2022/01/05 14:49:39;;;;;;;;;;;6.00;99.90;;;;;;5079449;28;19916;-48
2022/01/05 14:52:06;;;;;;;;;;;6.10;99.90;;;;;;5088770;28;20243;-50
2022/01/05 14:54:36;;;;;;;;;;;6.10;99.90;;;;;;5058011;28;19916;-49
2022/01/05 14:57:04;;;;;;;;;;;6.10;99.90;;;;;;5074906;28;19920;-51
2022/01/05 14:59:29;;;;;;;;;;;6.10;99.90;;;;;;5062483;28;19919;-48
2022/01/05 15:01:55;;;;;;;;;;;6.10;99.90;;;;;;5087159;28;19942;-46
2022/01/05 15:04:22;;;;;;;;;;;6.00;99.90;;;;;;5075420;28;19963;-47
2022/01/05 15:06:48;;;;;;;;;;;6.00;99.90;;;;;;5070612;28;19969;-47
2022/01/05 15:09:13;;;;;;;;;;;5.90;99.90;;;;;;5043478;28;19924;-49
2022/01/05 15:11:40;;;;;;;;;;;5.90;99.90;;;;;;5077435;28;19924;-51
2022/01/05 15:14:06;;;;;;;;;;;5.90;99.90;;;;;;5057600;28;19926;-50
2022/01/05 15:16:33;;;;;;;;;;;5.90;99.90;;;;;;5035171;28;19995;-46
2022/01/05 15:18:59;;;;;;;;;;;5.80;99.90;;;;;;5065834;28;19916;-46
2022/01/05 15:21:26;;;;;;;;;;;5.80;99.90;;;;;;5048019;28;20065;-47
2022/01/05 15:23:52;;;;;;;;;;;5.70;99.90;;;;;;5064455;28;20612;-46
2022/01/05 15:26:18;;;;;;;;;;;5.70;99.90;;;;;;5063276;28;19942;-47
2022/01/05 15:28:45;;;;;;;;;;;5.60;99.90;;;;;;5062867;28;19944;-47
2022/01/05 15:31:11;;;;;;;;;;;5.50;99.90;;;;;;5049164;28;19962;-50
2022/01/05 15:40:26;;;;;;;;;;;5.50;99.90;;;;;;5062766;28;19958;-48
2022/01/05 15:42:51;;;;;;;;;;;5.50;99.90;;;;;;5080261;28;19967;-46
2022/01/05 15:45:18;;;;;;;;;;;5.50;99.90;;;;;;5045806;28;19923;-46
2022/01/05 15:47:43;;;;;;;;;;;5.40;99.90;;;;;;5038481;28;19995;-47
2022/01/05 15:50:10;;;;;;;;;;;5.40;99.90;;;;;;5066432;28;20011;-50
2022/01/05 15:52:40;;;;;;;;;;;5.30;99.90;;;;;;5080288;28;19924;-45
2022/01/05 15:55:09;;;;;;;;;;;5.40;99.90;;;;;;5051629;28;20385;-46
2022/01/05 16:02:50;;;;;;;;;;;5.30;99.90;;;;;;5076232;28;19939;-46
2022/01/05 16:05:17;;;;;;;;;;;5.30;99.90;;;;;;5063002;28;19940;-45
2022/01/05 16:07:43;;;;;;;;;;;5.30;99.90;;;;;;5045840;28;19947;-48
2022/01/05 16:10:09;;;;;;;;;;;5.30;99.90;;;;;;5044736;28;20248;-46
2022/01/05 16:12:36;;;;;;;;;;;5.20;99.90;;;;;;5062580;28;20038;-46
2022/01/05 16:15:04;;;;;;;;;;;5.30;99.90;;;;;;5060896;28;19927;-46
2022/01/05 16:17:30;;;;;;;;;;;5.20;99.90;;;;;;5075491;28;20285;-48
2022/01/05 16:19:55;;;;;;;;;;;5.20;99.90;;;;;;5046007;28;19928;-48
2022/01/05 16:22:21;;;;;;;;;;;5.20;99.90;;;;;;5043645;28;20438;-47
2022/01/05 16:24:50;;;;;;;;;;;5.20;99.90;;;;;;5064480;28;20275;-46
2022/01/05 16:27:16;;;;;;;;;;;5.20;99.90;;;;;;5063850;28;20010;-49
2022/01/05 16:29:43;;;;;;;;;;;5.30;99.90;;;;;;5047286;28;19916;-46
2022/01/05 16:32:10;;;;;;;;;;;5.30;99.90;;;;;;5057538;28;19931;-45
2022/01/05 16:34:37;;;;;;;;;;;5.30;99.90;;;;;;5045909;28;20011;-45
2022/01/05 16:37:03;;;;;;;;;;;5.20;99.90;;;;;;5043729;28;19917;-46
2022/01/05 16:39:29;;;;;;;;;;;5.20;99.90;;;;;;5050847;28;19924;-47
2022/01/05 16:41:58;;;;;;;;;;;5.10;99.90;;;;;;5043747;28;20297;-49
2022/01/05 16:44:24;;;;;;;;;;;5.10;99.90;;;;;;5049338;28;19947;-45
2022/01/05 16:46:50;;;;;;;;;;;5.00;99.90;;;;;;5046195;28;19931;-45
2022/01/05 16:49:17;;;;;;;;;;;4.90;99.90;;;;;;5053489;28;19924;-49
2022/01/05 16:51:43;;;;;;;;;;;4.90;99.90;;;;;;5061462;28;20005;-47
2022/01/05 16:54:13;;;;;;;;;;;4.80;99.90;;;;;;5063298;28;19925;-46
2022/01/05 17:02:05;;;;;;;;;;;4.90;99.90;;;;;;5047541;28;20290;-47
2022/01/05 17:04:31;;;;;;;;;;;4.80;99.90;;;;;;5062105;28;19974;-47
2022/01/05 17:06:57;;;;;;;;;;;4.80;99.90;;;;;;5057167;28;19927;-44
2022/01/05 17:09:24;;;;;;;;;;;4.80;99.90;;;;;;5058389;28;19916;-46
2022/01/05 17:11:50;;;;;;;;;;;4.80;99.90;;;;;;5064241;28;19971;-46
2022/01/05 17:14:16;;;;;;;;;;;4.80;99.90;;;;;;5056340;28;19978;-47
2022/01/05 17:16:42;;;;;;;;;;;4.80;99.90;;;;;;5071425;28;19915;-48
2022/01/05 17:19:08;;;;;;;;;;;4.80;99.90;;;;;;5084282;28;19938;-49
2022/01/05 17:21:34;;;;;;;;;;;4.80;99.90;;;;;;5082500;28;19916;-45
2022/01/05 17:24:00;;;;;;;;;;;4.80;99.90;;;;;;5105093;28;19919;-45
2022/01/05 17:26:27;;;;;;;;;;;4.80;99.90;;;;;;5071950;28;19958;-45
2022/01/05 17:28:53;;;;;;;;;;;4.80;99.90;;;;;;5073921;28;20370;-47
2022/01/05 17:31:23;;;;;;;;;;;4.80;99.90;;;;;;5087201;28;20425;-49
2022/01/05 17:33:57;;;;;;;;;;;4.80;99.90;;;;;;5106067;27;19916;-45
2022/01/05 17:36:26;;;;;;;;;;;4.80;99.90;;;;;;5064919;28;19948;-48
2022/01/05 17:38:55;;;;;;;;;;;4.70;99.90;;;;;;5073399;28;19916;-46
2022/01/05 17:41:26;;;;;;;;;;;4.70;99.90;;;;;;5054362;28;19950;-48
2022/01/05 17:43:52;;;;;;;;;;;4.70;99.90;;;;;;5082649;28;19927;-47
2022/01/05 17:46:18;;;;;;;;;;;4.70;99.90;;;;;;5088795;28;19919;-47
2022/01/05 17:48:45;;;;;;;;;;;4.70;99.90;;;;;;5067596;28;19985;-46
2022/01/05 17:51:15;;;;;;;;;;;4.70;99.90;;;;;;5086118;28;20178;-47
2022/01/05 17:53:42;;;;;;;;;;;4.70;99.90;;;;;;5086537;28;20342;-48
2022/01/05 17:56:08;;;;;;;;;;;4.70;99.90;;;;;;5039208;28;19923;-47
2022/01/05 17:58:35;;;;;;;;;;;4.70;99.90;;;;;;5086786;28;19992;-48
2022/01/05 18:01:00;;;;;;;;;;;4.80;99.90;;;;;;5084091;28;19928;-45
2022/01/05 18:03:27;;;;;;;;;;;5.00;99.90;;;;;;5088627;28;19977;-47
2022/01/05 18:05:53;;;;;;;;;;;4.90;99.90;;;;;;5069634;28;19986;-47
2022/01/05 18:08:19;;;;;;;;;;;5.00;99.90;;;;;;5074478;28;19922;-48
2022/01/05 18:10:45;;;;;;;;;;;4.80;99.90;;;;;;5086446;28;20266;-45
2022/01/05 18:13:10;;;;;;;;;;;4.70;99.90;;;;;;5086867;28;19924;-48
2022/01/05 18:15:36;;;;;;;;;;;4.60;99.90;;;;;;5072494;28;19923;-46
2022/01/05 18:18:02;;;;;;;;;;;4.60;99.90;;;;;;5072353;28;19922;-50
2022/01/05 18:20:31;;;;;;;;;;;4.50;99.90;;;;;;5079720;28;20368;-45
2022/01/05 18:22:58;;;;;;;;;;;4.40;99.90;;;;;;5070600;28;20542;-46
2022/01/05 18:25:28;;;;;;;;;;;4.40;99.90;;;;;;5084981;28;20350;-46
2022/01/05 18:27:54;;;;;;;;;;;4.30;99.90;;;;;;5057868;28;19916;-46
2022/01/05 18:30:21;;;;;;;;;;;4.20;99.90;;;;;;5071662;28;19931;-44
2022/01/05 18:32:48;;;;;;;;;;;4.20;99.90;;;;;;5067524;28;19916;-46
2022/01/05 18:35:14;;;;;;;;;;;4.10;99.90;;;;;;5084988;28;19932;-46
2022/01/05 18:37:40;;;;;;;;;;;4.10;99.90;;;;;;5065613;28;19920;-45
2022/01/05 18:40:07;;;;;;;;;;;4.10;99.90;;;;;;5084207;28;20023;-45
2022/01/05 18:42:34;;;;;;;;;;;4.10;99.90;;;;;;5086843;28;19985;-45
2022/01/05 18:45:00;;;;;;;;;;;4.10;99.90;;;;;;5051724;28;19920;-46
2022/01/05 18:47:27;;;;;;;;;;;4.20;99.90;;;;;;5083014;28;19981;-48
2022/01/05 18:49:54;;;;;;;;;;;4.10;99.90;;;;;;5085063;28;20019;-45
2022/01/05 18:52:21;;;;;;;;;;;4.00;99.90;;;;;;5074306;28;20400;-46
2022/01/05 18:54:48;;;;;;;;;;;4.00;99.90;;;;;;5054144;28;19946;-44
2022/01/05 18:57:14;;;;;;;;;;;4.10;99.90;;;;;;5069587;28;19948;-46
2022/01/05 18:59:43;;;;;;;;;;;4.10;99.90;;;;;;5073516;28;20326;-48
2022/01/05 19:02:09;;;;;;;;;;;4.30;99.90;;;;;;5081558;28;19928;-45
2022/01/05 19:04:35;;;;;;;;;;;4.30;99.90;;;;;;5072642;28;19963;-45
2022/01/05 19:07:01;;;;;;;;;;;4.40;99.90;;;;;;5086790;28;19955;-48
2022/01/05 19:09:27;;;;;;;;;;;4.40;99.90;;;;;;5080898;28;19924;-46
2022/01/05 19:11:54;;;;;;;;;;;4.40;99.90;;;;;;5068682;28;20370;-46
2022/01/05 19:14:21;;;;;;;;;;;4.40;99.90;;;;;;5058889;28;19927;-49
2022/01/05 19:16:47;;;;;;;;;;;4.30;99.90;;;;;;5076624;28;20479;-48
2022/01/05 19:19:15;;;;;;;;;;;4.20;99.90;;;;;;5052697;28;19969;-49
2022/01/05 19:21:41;;;;;;;;;;;4.10;99.90;;;;;;5066379;28;20289;-44
2022/01/05 19:24:07;;;;;;;;;;;4.00;99.90;;;;;;5049492;28;20004;-45
2022/01/05 19:26:32;;;;;;;;;;;3.90;99.90;;;;;;5059569;28;19924;-44
2022/01/05 19:28:59;;;;;;;;;;;3.90;99.90;;;;;;5064526;28;19998;-46
2022/01/05 19:31:24;;;;;;;;;;;3.80;99.90;;;;;;5065181;28;19931;-48
2022/01/05 19:33:53;;;;;;;;;;;3.80;99.90;;;;;;5065628;28;19924;-48
2022/01/05 19:36:19;;;;;;;;;;;3.80;99.90;;;;;;5066956;28;19946;-45
2022/01/05 19:38:47;;;;;;;;;;;3.80;99.90;;;;;;5048930;28;19986;-46
2022/01/05 19:41:14;;;;;;;;;;;3.80;99.90;;;;;;5065800;28;19950;-46
2022/01/05 19:43:40;;;;;;;;;;;3.80;99.90;;;;;;5065621;28;19982;-46
2022/01/05 19:46:06;;;;;;;;;;;3.90;99.90;;;;;;5045360;28;20467;-45
2022/01/05 19:48:33;;;;;;;;;;;3.90;99.90;;;;;;5064573;28;20388;-48
2022/01/05 19:51:28;;;;;;;;;;;3.90;99.90;;;;;;5068812;28;19966;-46
2022/01/05 19:53:51;;;;;;;;;;;3.90;99.90;;;;;;5066213;28;20049;-49
2022/01/05 19:56:41;;;;;;;;;;;3.90;99.90;;;;;;5068338;28;19928;-46
2022/01/05 19:59:05;;;;;;;;;;;3.80;99.90;;;;;;5064643;28;20343;-45
2022/01/05 20:01:32;;;;;;;;;;;3.80;99.90;;;;;;5067292;28;19951;-43
2022/01/05 20:03:58;;;;;;;;;;;3.80;99.90;;;;;;5065276;28;19956;-44
2022/01/05 20:06:25;;;;;;;;;;;3.90;99.90;;;;;;5037701;28;19924;-47
2022/01/05 20:08:50;;;;;;;;;;;3.90;99.90;;;;;;5049712;28;19920;-46
2022/01/05 20:11:16;;;;;;;;;;;3.90;99.90;;;;;;5079178;28;19935;-45
2022/01/05 20:13:43;;;;;;;;;;;4.00;99.90;;;;;;5061193;28;19931;-46
2022/01/05 20:16:09;;;;;;;;;;;3.90;99.90;;;;;;5048756;28;19928;-48